Time;durP1;ratioP1;P1;durP2;ratioP2;P2;SDS_P1;SDS_P2;PMS_P1;PMS_P2;Temp;Humidity;BMP_temperature;BMP_pressure;BME280_temperature;BME280_humidity;BME280_pressure;Samples;Min_cycle;Max_cycle;Signal;HPM_P1;HPM_P2
2021/12/03 00:00:44;;;;;;;1999.90;999.90;;;0.80;99.90;;;;;;5014596;28;20092;-60
2021/12/03 00:03:10;;;;;;;1999.90;999.90;;;0.80;99.90;;;;;;5014242;28;20050;-60
2021/12/03 00:05:37;;;;;;;1999.90;999.90;;;0.90;99.90;;;;;;5009032;28;20073;-60
2021/12/03 00:08:03;;;;;;;1999.90;999.90;;;0.90;99.90;;;;;;4994946;28;20069;-60
2021/12/03 00:10:29;;;;;;;1999.90;999.90;;;0.90;99.90;;;;;;4976658;28;20378;-60
2021/12/03 00:12:57;;;;;;;1999.90;999.90;;;0.90;99.90;;;;;;4995072;28;20046;-60
2021/12/03 00:15:25;;;;;;;1999.90;999.90;;;0.90;99.90;;;;;;4994694;28;20042;-60
2021/12/03 00:17:52;;;;;;;1999.90;999.90;;;1.00;99.90;;;;;;4994062;28;20117;-60
2021/12/03 00:20:19;;;;;;;1999.90;999.90;;;1.00;99.90;;;;;;4994792;28;20497;-60
2021/12/03 00:22:49;;;;;;;1999.90;999.90;;;0.90;99.90;;;;;;4995362;28;20050;-60
2021/12/03 00:25:15;;;;;;;1999.90;999.90;;;0.90;99.90;;;;;;5013527;28;20480;-60
2021/12/03 00:27:41;;;;;;;1999.90;999.90;;;0.80;99.90;;;;;;5014234;28;20069;-60
2021/12/03 00:30:10;;;;;;;1999.90;999.90;;;0.70;99.90;;;;;;5013725;28;20515;-60
2021/12/03 00:32:36;;;;;;;1999.90;999.90;;;0.70;99.90;;;;;;5004009;28;20515;-60
2021/12/03 00:35:04;;;;;;;1999.90;999.90;;;0.80;99.90;;;;;;4994743;28;20104;-60
2021/12/03 00:37:29;;;;;;;1999.90;999.90;;;0.70;99.90;;;;;;4994199;28;20065;-60
2021/12/03 00:39:55;;;;;;;1999.90;999.90;;;0.70;99.90;;;;;;4993687;28;20046;-60
2021/12/03 00:42:21;;;;;;;1999.90;999.90;;;0.70;99.90;;;;;;4976596;28;20061;-60
2021/12/03 00:44:52;;;;;;;1999.90;999.90;;;0.70;99.90;;;;;;4988551;28;20085;-60
2021/12/03 00:47:18;;;;;;;1999.90;999.90;;;0.60;99.90;;;;;;4993371;28;20509;-60
2021/12/03 00:49:44;;;;;;;1999.90;999.90;;;0.60;99.90;;;;;;4998657;28;20042;-60
2021/12/03 00:52:10;;;;;;;1999.90;999.90;;;0.60;99.90;;;;;;5013348;28;20057;-60
2021/12/03 00:54:36;;;;;;;1999.90;999.90;;;0.70;99.90;;;;;;5013337;28;20046;-60
2021/12/03 00:57:03;;;;;;;1999.90;999.90;;;0.70;99.90;;;;;;5013650;28;20066;-60
2021/12/03 00:59:29;;;;;;;1999.90;999.90;;;0.80;99.90;;;;;;5012357;28;20046;-60
2021/12/03 01:01:54;;;;;;;1999.90;999.90;;;0.80;99.90;;;;;;5013108;28;20060;-60
2021/12/03 01:04:20;;;;;;;1999.90;999.90;;;0.90;99.90;;;;;;5013790;28;20172;-60
2021/12/03 01:06:46;;;;;;;1999.90;999.90;;;1.00;99.90;;;;;;5012519;28;20412;-60
2021/12/03 01:09:12;;;;;;;1999.90;999.90;;;1.10;99.90;;;;;;5007120;28;20121;-60
2021/12/03 01:11:38;;;;;;;1999.90;999.90;;;1.10;99.90;;;;;;4994080;28;20512;-60
2021/12/03 01:14:04;;;;;;;1999.90;999.90;;;1.10;99.90;;;;;;4993317;28;20072;-60
2021/12/03 01:16:31;;;;;;;1999.90;999.90;;;1.10;99.90;;;;;;5000280;28;20054;-60
2021/12/03 01:18:57;;;;;;;1999.90;999.90;;;1.10;99.90;;;;;;4995584;28;20042;-60
2021/12/03 01:21:24;;;;;;;1999.90;999.90;;;1.10;99.90;;;;;;4992862;28;20481;-60
2021/12/03 01:23:52;;;;;;;1999.90;999.90;;;1.10;99.90;;;;;;4993593;28;20050;-60
2021/12/03 01:26:19;;;;;;;1999.90;999.90;;;1.10;99.90;;;;;;5007872;28;20447;-60
2021/12/03 01:28:46;;;;;;;1999.90;999.90;;;1.00;99.90;;;;;;5012571;28;20460;-61
2021/12/03 01:31:14;;;;;;;1999.90;999.90;;;1.00;99.90;;;;;;5012954;28;20129;-60
2021/12/03 01:33:40;;;;;;;1999.90;999.90;;;1.00;99.90;;;;;;5012965;28;20049;-60
2021/12/03 01:36:06;;;;;;;1999.90;999.90;;;1.00;99.90;;;;;;5012586;28;20058;-61
2021/12/03 01:38:32;;;;;;;1999.90;999.90;;;1.00;99.90;;;;;;5012957;28;20052;-60
2021/12/03 01:40:58;;;;;;;1999.90;999.90;;;1.00;99.90;;;;;;5013300;28;20053;-60
2021/12/03 01:43:26;;;;;;;1999.90;999.90;;;1.10;99.90;;;;;;5008352;28;20038;-60
2021/12/03 01:45:56;;;;;;;1999.90;999.90;;;1.10;99.90;;;;;;4994566;28;20046;-60
2021/12/03 01:48:23;;;;;;;1999.90;999.90;;;1.20;99.90;;;;;;4993363;28;20053;-60
2021/12/03 01:50:49;;;;;;;1999.90;999.90;;;1.30;99.90;;;;;;4992468;28;20058;-60
2021/12/03 01:53:17;;;;;;;1999.90;999.90;;;1.30;99.90;;;;;;4975728;28;20050;-60
2021/12/03 01:55:45;;;;;;;1999.90;999.90;;;1.40;99.90;;;;;;4992618;28;20068;-60
2021/12/03 01:58:12;;;;;;;1999.90;999.90;;;1.30;99.90;;;;;;4993557;28;20046;-60
2021/12/03 02:00:44;;;;;;;1999.90;999.90;;;1.40;99.90;;;;;;4992698;28;20505;-60
2021/12/03 02:03:14;;;;;;;1999.90;999.90;;;1.30;99.90;;;;;;4992744;28;20117;-60
2021/12/03 02:05:41;;;;;;;1999.90;999.90;;;1.30;99.90;;;;;;4993122;28;20456;-60
2021/12/03 02:08:06;;;;;;;1999.90;999.90;;;1.30;99.90;;;;;;4993037;28;20061;-60
2021/12/03 02:10:34;;;;;;;1999.90;999.90;;;1.20;99.90;;;;;;4992137;28;20054;-60
2021/12/03 02:13:00;;;;;;;1999.90;999.90;;;1.20;99.90;;;;;;4993457;28;20058;-60
2021/12/03 02:15:26;;;;;;;1999.90;999.90;;;1.20;99.90;;;;;;4977950;28;20058;-60
2021/12/03 02:17:52;;;;;;;1999.90;999.90;;;1.20;99.90;;;;;;4996052;28;20246;-60
2021/12/03 02:20:19;;;;;;;1999.90;999.90;;;1.30;99.90;;;;;;4976305;28;20051;-60
2021/12/03 02:22:46;;;;;;;1999.90;999.90;;;1.20;99.90;;;;;;4992300;28;20081;-61
2021/12/03 02:25:16;;;;;;;1999.90;999.90;;;1.30;99.90;;;;;;4978824;28;20420;-60
2021/12/03 02:27:42;;;;;;;1999.90;999.90;;;1.40;99.90;;;;;;4996827;28;20057;-60
2021/12/03 02:30:09;;;;;;;1999.90;999.90;;;1.40;99.90;;;;;;4996665;28;20058;-60
2021/12/03 02:32:35;;;;;;;1999.90;999.90;;;1.30;99.90;;;;;;4996024;28;20100;-60
2021/12/03 02:35:01;;;;;;;1999.90;999.90;;;1.30;99.90;;;;;;4997124;28;20053;-60
2021/12/03 02:37:27;;;;;;;1999.90;999.90;;;1.30;99.90;;;;;;4996355;28;20061;-60
2021/12/03 02:39:52;;;;;;;1999.90;999.90;;;1.20;99.90;;;;;;4996118;28;20121;-60
2021/12/03 02:42:18;;;;;;;1999.90;999.90;;;1.30;99.90;;;;;;4996958;28;20471;-60
2021/12/03 02:44:44;;;;;;;1999.90;999.90;;;1.20;99.90;;;;;;4995068;28;20081;-60
2021/12/03 02:47:11;;;;;;;1999.90;999.90;;;1.30;99.90;;;;;;5015090;28;20046;-60
2021/12/03 02:49:39;;;;;;;1999.90;999.90;;;1.30;99.90;;;;;;5015956;28;20120;-60
2021/12/03 02:52:05;;;;;;;1999.90;999.90;;;1.30;99.90;;;;;;5015176;28;20041;-60
2021/12/03 02:54:31;;;;;;;1999.90;999.90;;;1.20;99.90;;;;;;5003692;28;20485;-60
2021/12/03 02:56:57;;;;;;;1999.90;999.90;;;1.20;99.90;;;;;;4995251;28;20058;-60
2021/12/03 02:59:23;;;;;;;1999.90;999.90;;;1.20;99.90;;;;;;4976903;28;20085;-60
2021/12/03 03:01:49;;;;;;;1999.90;999.90;;;1.20;99.90;;;;;;4995227;28;20496;-60
2021/12/03 03:04:15;;;;;;;1999.90;999.90;;;1.10;99.90;;;;;;4995157;28;20112;-60
2021/12/03 03:06:41;;;;;;;1999.90;999.90;;;1.10;99.90;;;;;;4994334;28;20509;-60
2021/12/03 03:09:10;;;;;;;1999.90;999.90;;;1.10;99.90;;;;;;4995093;28;20121;-60
2021/12/03 03:11:36;;;;;;;1999.90;999.90;;;1.00;99.90;;;;;;5001813;28;20378;-60
2021/12/03 03:14:03;;;;;;;1999.90;999.90;;;1.00;99.90;;;;;;5013650;28;20057;-60
2021/12/03 03:16:29;;;;;;;1999.90;999.90;;;1.10;99.90;;;;;;5014651;28;20156;-60
2021/12/03 03:18:55;;;;;;;1999.90;999.90;;;1.10;99.90;;;;;;4996932;28;20054;-60
2021/12/03 03:21:21;;;;;;;1999.90;999.90;;;1.10;99.90;;;;;;4990225;28;20046;-60
2021/12/03 03:23:47;;;;;;;1999.90;999.90;;;1.20;99.90;;;;;;4994852;28;20062;-60
2021/12/03 03:26:13;;;;;;;1999.90;999.90;;;1.20;99.90;;;;;;4994741;28;20051;-60
2021/12/03 03:28:40;;;;;;;1999.90;999.90;;;1.20;99.90;;;;;;4993659;28;20049;-60
2021/12/03 03:31:07;;;;;;;1999.90;999.90;;;1.20;99.90;;;;;;4994625;28;20101;-60
2021/12/03 03:33:33;;;;;;;1999.90;999.90;;;1.20;99.90;;;;;;4977522;28;20058;-60
2021/12/03 03:35:59;;;;;;;1999.90;999.90;;;1.20;99.90;;;;;;4993532;28;20432;-60
2021/12/03 03:38:25;;;;;;;1999.90;999.90;;;1.20;99.90;;;;;;5003324;28;20054;-60
2021/12/03 03:40:52;;;;;;;1999.90;999.90;;;1.20;99.90;;;;;;5014236;28;20124;-60
2021/12/03 03:43:19;;;;;;;1999.90;999.90;;;1.20;99.90;;;;;;5012945;28;20165;-60
2021/12/03 03:45:45;;;;;;;1999.90;999.90;;;1.30;99.90;;;;;;5000734;28;20065;-60
2021/12/03 03:48:11;;;;;;;1999.90;999.90;;;1.30;99.90;;;;;;4993751;28;20133;-60
2021/12/03 03:50:38;;;;;;;1999.90;999.90;;;1.30;99.90;;;;;;4994111;28;20073;-60
2021/12/03 03:53:05;;;;;;;1999.90;999.90;;;1.20;99.90;;;;;;4994563;28;20097;-60
2021/12/03 03:55:32;;;;;;;1999.90;999.90;;;1.30;99.90;;;;;;4924121;28;1040973;-60
2021/12/03 03:58:00;;;;;;;1999.90;999.90;;;1.30;99.90;;;;;;4994787;28;20453;-60
2021/12/03 04:00:37;;;;;;;1999.90;999.90;;;1.30;99.90;;;;;;4995386;28;20110;-60
2021/12/03 04:03:03;;;;;;;1999.90;999.90;;;1.30;99.90;;;;;;4994760;28;20133;-60
2021/12/03 04:05:29;;;;;;;1999.90;999.90;;;1.30;99.90;;;;;;4994703;28;20047;-60
2021/12/03 04:07:55;;;;;;;1999.90;999.90;;;1.30;99.90;;;;;;4995448;28;20057;-60
2021/12/03 04:10:21;;;;;;;1999.90;999.90;;;1.30;99.90;;;;;;4973413;28;20058;-61
2021/12/03 04:12:46;;;;;;;1999.90;999.90;;;1.30;99.90;;;;;;4977003;28;20054;-60
2021/12/03 04:15:13;;;;;;;1999.90;999.90;;;1.20;99.90;;;;;;5014827;28;20404;-60
2021/12/03 04:17:40;;;;;;;1999.90;999.90;;;1.20;99.90;;;;;;5006380;28;20121;-60
2021/12/03 04:20:08;;;;;;;1999.90;999.90;;;1.20;99.90;;;;;;4994661;28;20461;-60
2021/12/03 04:22:34;;;;;;;1999.90;999.90;;;1.20;99.90;;;;;;4994894;28;20436;-60
2021/12/03 04:25:01;;;;;;;1999.90;999.90;;;1.20;99.90;;;;;;4993951;28;20070;-60
2021/12/03 04:27:27;;;;;;;1999.90;999.90;;;1.20;99.90;;;;;;4994672;28;20047;-60
2021/12/03 04:29:53;;;;;;;1999.90;999.90;;;1.20;99.90;;;;;;4994771;28;20042;-60
2021/12/03 04:32:21;;;;;;;1999.90;999.90;;;1.30;99.90;;;;;;4993780;28;20049;-60
2021/12/03 04:34:47;;;;;;;1999.90;999.90;;;1.20;99.90;;;;;;4994615;28;20096;-60
2021/12/03 04:37:12;;;;;;;1999.90;999.90;;;1.20;99.90;;;;;;4993848;28;20109;-61
2021/12/03 04:39:38;;;;;;;1999.90;999.90;;;1.10;99.90;;;;;;4993537;28;20381;-60
2021/12/03 04:42:04;;;;;;;1999.90;999.90;;;1.20;99.90;;;;;;4994073;28;20508;-60
2021/12/03 04:44:30;;;;;;;1999.90;999.90;;;1.20;99.90;;;;;;4993647;28;20049;-61
2021/12/03 04:46:56;;;;;;;1999.90;999.90;;;1.20;99.90;;;;;;4994653;28;20046;-60
2021/12/03 04:49:22;;;;;;;1999.90;999.90;;;1.10;99.90;;;;;;4993675;28;20595;-60
2021/12/03 04:51:47;;;;;;;1999.90;999.90;;;1.10;99.90;;;;;;4993541;28;20047;-60
2021/12/03 04:54:13;;;;;;;1999.90;999.90;;;1.10;99.90;;;;;;4994044;28;20169;-61
2021/12/03 04:56:39;;;;;;;1999.90;999.90;;;1.10;99.90;;;;;;4993778;28;20072;-61
2021/12/03 04:59:05;;;;;;;1999.90;999.90;;;1.10;99.90;;;;;;4993396;28;20496;-61
2021/12/03 05:01:31;;;;;;;1999.90;999.90;;;1.10;99.90;;;;;;4994319;28;20038;-60
2021/12/03 05:03:57;;;;;;;1999.90;999.90;;;1.10;99.90;;;;;;4976261;28;20413;-61
2021/12/03 05:06:31;;;;;;;1999.90;999.90;;;1.00;99.90;;;;;;4998260;28;20058;-61
2021/12/03 05:08:57;;;;;;;1999.90;999.90;;;1.10;99.90;;;;;;5009737;28;20054;-61
2021/12/03 05:11:22;;;;;;;1999.90;999.90;;;1.00;99.90;;;;;;4993930;28;20050;-60
2021/12/03 05:13:48;;;;;;;1999.90;999.90;;;1.00;99.90;;;;;;4988028;28;20128;-60
2021/12/03 05:16:15;;;;;;;1999.90;999.90;;;1.00;99.90;;;;;;4993746;28;20050;-60
2021/12/03 05:18:44;;;;;;;1999.90;999.90;;;1.00;99.90;;;;;;4993549;28;20193;-60
2021/12/03 05:21:10;;;;;;;1999.90;999.90;;;1.00;99.90;;;;;;4992866;28;20038;-61
2021/12/03 05:23:35;;;;;;;1999.90;999.90;;;1.00;99.90;;;;;;4994822;28;20515;-60
2021/12/03 05:26:02;;;;;;;1999.90;999.90;;;1.00;99.90;;;;;;5013168;28;20140;-60
2021/12/03 05:28:28;;;;;;;1999.90;999.90;;;1.00;99.90;;;;;;5012699;28;20058;-60
2021/12/03 05:30:55;;;;;;;1999.90;999.90;;;1.00;99.90;;;;;;5013219;28;20052;-61
2021/12/03 05:33:20;;;;;;;1999.90;999.90;;;1.10;99.90;;;;;;5004024;28;20047;-61
2021/12/03 05:35:46;;;;;;;1999.90;999.90;;;1.10;99.90;;;;;;4993294;28;20050;-61
2021/12/03 05:38:12;;;;;;;1999.90;999.90;;;1.10;99.90;;;;;;4993375;28;20061;-60
2021/12/03 05:40:38;;;;;;;1999.90;999.90;;;1.00;99.90;;;;;;4992639;28;20512;-61
2021/12/03 05:43:04;;;;;;;1999.90;999.90;;;1.10;99.90;;;;;;4975761;28;20081;-60
2021/12/03 05:45:32;;;;;;;1999.90;999.90;;;1.10;99.90;;;;;;4993384;28;20121;-60
2021/12/03 05:47:59;;;;;;;1999.90;999.90;;;1.10;99.90;;;;;;4991341;28;20133;-60
2021/12/03 05:50:25;;;;;;;1999.90;999.90;;;1.10;99.90;;;;;;4992863;28;20035;-60
2021/12/03 05:52:53;;;;;;;1999.90;999.90;;;1.00;99.90;;;;;;4993187;28;20122;-61
2021/12/03 05:55:19;;;;;;;1999.90;999.90;;;1.00;99.90;;;;;;4992383;28;20125;-60
2021/12/03 05:57:46;;;;;;;1999.90;999.90;;;1.10;99.90;;;;;;4993310;28;20082;-61
2021/12/03 06:00:16;;;;;;;1999.90;999.90;;;1.10;99.90;;;;;;4993227;28;20496;-61
2021/12/03 06:02:42;;;;;;;1999.90;999.90;;;1.10;99.90;;;;;;4975022;28;20511;-61
2021/12/03 06:05:09;;;;;;;1999.90;999.90;;;1.10;99.90;;;;;;4993174;28;20042;-60
2021/12/03 06:07:34;;;;;;;1999.90;999.90;;;1.10;99.90;;;;;;4993155;28;20401;-60
2021/12/03 06:10:00;;;;;;;1999.90;999.90;;;1.10;99.90;;;;;;4992346;28;20043;-61
2021/12/03 06:12:26;;;;;;;1999.90;999.90;;;1.10;99.90;;;;;;4993105;28;20057;-60
2021/12/03 06:14:52;;;;;;;1999.90;999.90;;;1.10;99.90;;;;;;4993161;28;20568;-60
2021/12/03 06:17:18;;;;;;;1999.90;999.90;;;1.20;99.90;;;;;;4991930;28;20078;-60
2021/12/03 06:19:44;;;;;;;1999.90;999.90;;;1.20;99.90;;;;;;4992520;28;20086;-61
2021/12/03 06:22:10;;;;;;;1999.90;999.90;;;1.10;99.90;;;;;;4992805;28;20366;-61
2021/12/03 06:24:38;;;;;;;1999.90;999.90;;;1.10;99.90;;;;;;4992429;28;20050;-61
2021/12/03 06:27:05;;;;;;;1999.90;999.90;;;1.10;99.90;;;;;;4992942;28;20128;-61
2021/12/03 06:29:31;;;;;;;1999.90;999.90;;;1.10;99.90;;;;;;4975606;28;20117;-61
2021/12/03 06:31:56;;;;;;;1999.90;999.90;;;1.10;99.90;;;;;;4992530;28;20485;-62
2021/12/03 06:34:22;;;;;;;1999.90;999.90;;;1.10;99.90;;;;;;4992527;28;20085;-60
2021/12/03 06:36:49;;;;;;;1999.90;999.90;;;1.10;99.90;;;;;;4992854;28;20046;-61
2021/12/03 06:39:15;;;;;;;1999.90;999.90;;;1.10;99.90;;;;;;4992780;28;20053;-61
2021/12/03 06:41:41;;;;;;;1999.90;999.90;;;1.10;99.90;;;;;;4992644;28;20125;-61
2021/12/03 06:44:08;;;;;;;1999.90;999.90;;;1.10;99.90;;;;;;4991897;28;20392;-62
2021/12/03 06:46:35;;;;;;;1999.90;999.90;;;1.00;99.90;;;;;;4992906;28;20142;-61
2021/12/03 06:49:01;;;;;;;1999.90;999.90;;;1.10;99.90;;;;;;4992581;28;20113;-61
2021/12/03 06:51:28;;;;;;;1999.90;999.90;;;1.10;99.90;;;;;;4992155;28;20043;-61
2021/12/03 06:54:03;;;;;;;1999.90;999.90;;;1.10;99.90;;;;;;4992749;28;20050;-62
2021/12/03 06:56:48;;;;;;;1999.90;999.90;;;1.10;99.90;;;;;;4992252;28;20502;-61
2021/12/03 06:59:16;;;;;;;1999.90;999.90;;;1.10;99.90;;;;;;4991893;28;20176;-61
2021/12/03 07:01:42;;;;;;;1999.90;999.90;;;1.20;99.90;;;;;;4977839;28;20052;-61
2021/12/03 07:04:09;;;;;;;1999.90;999.90;;;1.20;99.90;;;;;;4996253;28;20469;-61
2021/12/03 07:06:35;;;;;;;1999.90;999.90;;;1.20;99.90;;;;;;4995538;28;20082;-61
2021/12/03 07:09:01;;;;;;;1999.90;999.90;;;1.20;99.90;;;;;;4996044;28;20054;-61
2021/12/03 07:11:27;;;;;;;1999.90;999.90;;;1.30;99.90;;;;;;5000818;28;20062;-61
2021/12/03 07:13:53;;;;;;;1999.90;999.90;;;1.30;99.90;;;;;;5002567;28;20057;-61
2021/12/03 07:16:19;;;;;;;1999.90;999.90;;;1.30;99.90;;;;;;5005935;28;20057;-61
2021/12/03 07:18:45;;;;;;;1999.90;999.90;;;1.40;99.90;;;;;;5009969;28;20082;-60
2021/12/03 07:21:11;;;;;;;1999.90;999.90;;;1.30;99.90;;;;;;4997899;28;20077;-61
2021/12/03 07:23:37;;;;;;;1999.90;999.90;;;1.30;99.90;;;;;;5010990;28;20451;-60
2021/12/03 07:26:03;;;;;;;1999.90;999.90;;;1.30;99.90;;;;;;5006317;28;20129;-60
2021/12/03 07:28:30;;;;;;;1999.90;999.90;;;1.30;99.90;;;;;;5002493;28;20070;-61
2021/12/03 07:30:56;;;;;;;1999.90;999.90;;;1.30;99.90;;;;;;4988263;28;20493;-60
2021/12/03 07:33:22;;;;;;;1999.90;999.90;;;1.30;99.90;;;;;;4999513;28;20489;-61
2021/12/03 07:35:49;;;;;;;1999.90;999.90;;;1.30;99.90;;;;;;4995844;28;20046;-62
2021/12/03 07:38:17;;;;;;;1999.90;999.90;;;1.40;99.90;;;;;;5002699;28;20046;-62
2021/12/03 07:40:45;;;;;;;1999.90;999.90;;;1.40;99.90;;;;;;5014393;28;20050;-61
2021/12/03 07:43:11;;;;;;;1999.90;999.90;;;1.40;99.90;;;;;;5008882;28;20054;-62
2021/12/03 07:45:37;;;;;;;1999.90;999.90;;;1.40;99.90;;;;;;5001212;28;20052;-62
2021/12/03 07:48:04;;;;;;;1999.90;999.90;;;1.40;99.90;;;;;;5001990;28;20054;-62
2021/12/03 07:50:33;;;;;;;1999.90;999.90;;;1.40;99.90;;;;;;4995510;28;20046;-61
2021/12/03 07:52:59;;;;;;;1999.90;999.90;;;1.50;99.90;;;;;;4995419;28;20476;-60
2021/12/03 07:55:25;;;;;;;1999.90;999.90;;;1.50;99.90;;;;;;4994170;28;20059;-60
2021/12/03 07:57:52;;;;;;;1999.90;999.90;;;1.50;99.90;;;;;;4995545;28;20196;-61
2021/12/03 08:00:18;;;;;;;1999.90;999.90;;;1.50;99.90;;;;;;4995400;28;20042;-60
2021/12/03 08:02:44;;;;;;;1999.90;999.90;;;1.50;99.90;;;;;;4994429;28;20053;-60
2021/12/03 08:05:10;;;;;;;1999.90;999.90;;;1.50;99.90;;;;;;4975806;28;20389;-60
2021/12/03 08:07:36;;;;;;;1999.90;999.90;;;1.50;99.90;;;;;;4975952;28;20050;-60
2021/12/03 08:10:03;;;;;;;1999.90;999.90;;;1.40;99.90;;;;;;4990484;28;20047;-60
2021/12/03 08:12:29;;;;;;;1999.90;999.90;;;1.40;99.90;;;;;;4976626;28;20408;-61
2021/12/03 08:14:54;;;;;;;1999.90;999.90;;;1.40;99.90;;;;;;4995308;28;20046;-60
2021/12/03 08:17:20;;;;;;;1999.90;999.90;;;1.50;99.90;;;;;;4993866;28;20125;-60
2021/12/03 08:19:46;;;;;;;1999.90;999.90;;;1.50;99.90;;;;;;4994960;28;20053;-61
2021/12/03 08:22:11;;;;;;;1999.90;999.90;;;1.50;99.90;;;;;;4994707;28;20049;-60
2021/12/03 08:24:37;;;;;;;1999.90;999.90;;;1.50;99.90;;;;;;4993976;28;20038;-61
2021/12/03 08:27:03;;;;;;;1999.90;999.90;;;1.60;99.90;;;;;;4994608;28;20125;-61
2021/12/03 08:29:29;;;;;;;1999.90;999.90;;;1.60;99.90;;;;;;4993945;28;20050;-62
2021/12/03 08:31:55;;;;;;;1999.90;999.90;;;1.70;99.90;;;;;;4994618;28;20057;-62
2021/12/03 08:34:21;;;;;;;1999.90;999.90;;;1.20;99.90;;;;;;4994789;28;20517;-61
2021/12/03 08:36:47;;;;;;;1999.90;999.90;;;1.70;99.90;;;;;;4994070;28;20445;-60
2021/12/03 08:39:13;;;;;;;1999.90;999.90;;;1.70;99.90;;;;;;4993796;28;20049;-61
2021/12/03 08:41:38;;;;;;;1999.90;999.90;;;1.70;99.90;;;;;;4994763;28;20081;-60
2021/12/03 08:44:04;;;;;;;1999.90;999.90;;;1.70;99.90;;;;;;5002676;28;20429;-61
2021/12/03 08:46:35;;;;;;;1999.90;999.90;;;1.80;99.90;;;;;;4993639;28;20046;-61
2021/12/03 08:49:08;;;;;;;1999.90;999.90;;;1.80;99.90;;;;;;4994184;28;20142;-61
2021/12/03 08:51:51;;;;;;;1999.90;999.90;;;1.90;99.90;;;;;;4975152;28;20046;-61
2021/12/03 08:57:01;;;;;;;1999.90;999.90;;;2.00;99.90;;;;;;4984135;28;20045;-62
2021/12/03 08:59:27;;;;;;;1999.90;999.90;;;2.00;99.90;;;;;;5003334;28;20069;-61
2021/12/03 09:01:53;;;;;;;1999.90;999.90;;;2.00;99.90;;;;;;5010695;28;20054;-62
2021/12/03 09:04:19;;;;;;;1999.90;999.90;;;2.00;99.90;;;;;;5013642;28;20407;-61
2021/12/03 09:06:45;;;;;;;1999.90;999.90;;;2.00;99.90;;;;;;4983811;28;20057;-62
2021/12/03 09:09:10;;;;;;;1999.90;999.90;;;2.10;99.90;;;;;;4999011;28;20073;-60
2021/12/03 09:11:39;;;;;;;1999.90;999.90;;;2.10;99.90;;;;;;5002005;28;20542;-61
2021/12/03 09:14:17;;;;;;;1999.90;999.90;;;2.10;99.90;;;;;;4998665;28;20536;-61
2021/12/03 09:16:46;;;;;;;1999.90;999.90;;;2.20;99.90;;;;;;4993554;28;20049;-63
2021/12/03 09:19:20;;;;;;;1999.90;999.90;;;2.10;99.90;;;;;;4993294;28;20129;-62
2021/12/03 09:21:46;;;;;;;1999.90;999.90;;;2.10;99.90;;;;;;4993713;28;20038;-60
2021/12/03 09:24:14;;;;;;;1999.90;999.90;;;2.20;99.90;;;;;;4992930;28;20054;-61
2021/12/03 09:26:42;;;;;;;1999.90;999.90;;;2.10;99.90;;;;;;4998352;28;20048;-61
2021/12/03 09:29:11;;;;;;;1999.90;999.90;;;2.10;99.90;;;;;;5003042;28;20068;-61
2021/12/03 09:31:41;;;;;;;1999.90;999.90;;;2.10;99.90;;;;;;5005517;28;20046;-62
2021/12/03 09:34:10;;;;;;;1999.90;999.90;;;2.10;99.90;;;;;;4995451;28;20054;-60
2021/12/03 09:36:40;;;;;;;1999.90;999.90;;;2.20;99.90;;;;;;5004050;28;20117;-60
2021/12/03 09:39:07;;;;;;;1999.90;999.90;;;2.10;99.90;;;;;;5000017;28;20110;-60
2021/12/03 09:41:35;;;;;;;1999.90;999.90;;;2.10;99.90;;;;;;5001235;28;20074;-61
2021/12/03 09:44:01;;;;;;;1999.90;999.90;;;2.10;99.90;;;;;;5000535;28;20515;-61
2021/12/03 09:46:27;;;;;;;1999.90;999.90;;;2.10;99.90;;;;;;5010864;28;20069;-60
2021/12/03 09:51:29;;;;;;;;;;;2.10;99.90;;;;;;4991663;28;20540;-60
2021/12/03 09:54:19;;;;;;;1999.90;999.90;;;2.10;99.90;;;;;;4988155;28;19921;-62
2021/12/03 09:56:45;;;;;;;1999.90;999.90;;;2.20;99.90;;;;;;5001028;28;20050;-60
2021/12/03 10:10:15;;;;;;;1999.90;999.90;;;2.30;99.90;;;;;;4997280;28;20054;-60
2021/12/03 10:12:47;;;;;;;1999.90;999.90;;;2.30;99.90;;;;;;4975545;28;20397;-61
2021/12/03 10:15:19;;;;;;;1999.90;999.90;;;2.30;99.90;;;;;;4974896;28;20832;-60
2021/12/03 10:18:07;;;;;;;1999.90;999.90;;;2.30;99.90;;;;;;4993060;28;20046;-61
2021/12/03 10:20:51;;;;;;;1999.90;999.90;;;2.40;99.90;;;;;;4992994;28;20105;-60
2021/12/03 10:32:08;;;;;;;1999.90;999.90;;;2.40;99.90;;;;;;4992534;28;20050;-60
2021/12/03 10:34:46;;;;;;;1999.90;999.90;;;2.30;99.90;;;;;;4998303;28;20053;-60
2021/12/03 10:37:26;;;;;;;1999.90;999.90;;;2.40;99.90;;;;;;4991454;28;20489;-60
2021/12/03 10:40:05;;;;;;;1999.90;999.90;;;2.40;99.90;;;;;;5005022;28;20078;-60
2021/12/03 10:42:46;;;;;;;1999.90;999.90;;;2.40;99.90;;;;;;4996583;28;20042;-60
2021/12/03 10:47:56;;;;;;;1999.90;999.90;;;2.50;99.90;;;;;;4996828;28;20061;-60
2021/12/03 10:50:41;;;;;;;1999.90;999.90;;;2.50;99.90;;;;;;4995687;28;20054;-60
2021/12/03 10:53:22;;;;;;;1999.90;999.90;;;2.60;99.90;;;;;;5014403;28;20088;-60
2021/12/03 10:58:45;;;;;;;1999.90;999.90;;;2.60;99.90;;;;;;5015550;28;20049;-60
2021/12/03 11:07:18;;;;;;;1999.90;999.90;;;2.60;99.90;;;;;;4997639;28;20049;-60
2021/12/03 11:13:06;;;;;;;1999.90;999.90;;;2.70;99.90;;;;;;4995590;28;20046;-61
2021/12/03 11:37:09;;;;;;;1999.90;999.90;;;2.50;99.90;;;;;;4997370;28;20054;-61
2021/12/03 11:40:30;;;;;;;1999.90;999.90;;;2.50;99.90;;;;;;4994746;28;20074;-60
2021/12/03 12:00:40;;;;;;;1999.90;999.90;;;2.60;99.90;;;;;;4995190;28;20121;-60
2021/12/03 12:56:08;;;;;;;1999.90;999.90;;;2.80;99.90;;;;;;4976557;28;20058;-62
2021/12/03 13:17:22;;;;;;;1999.90;999.90;;;2.70;99.90;;;;;;4976448;28;20090;-63
2021/12/03 13:34:23;;;;;;;1999.90;999.90;;;2.70;99.90;;;;;;5003549;28;20124;-62
2021/12/03 13:36:32;;;;;;;1999.90;999.90;;;2.70;99.90;;;;;;4995192;28;20050;-62
2021/12/03 13:39:45;;;;;;;1999.90;999.90;;;2.70;99.90;;;;;;5012520;28;20074;-62
2021/12/03 14:18:50;;;;;;;1999.90;999.90;;;3.00;99.90;;;;;;5001971;28;20049;-62
2021/12/03 14:20:51;;;;;;;1999.90;999.90;;;3.00;99.90;;;;;;5016536;28;20045;-62
2021/12/03 14:41:14;;;;;;;1999.90;999.90;;;3.10;99.90;;;;;;4996905;28;20050;-62
2021/12/03 14:43:46;;;;;;;1999.90;999.90;;;3.10;99.90;;;;;;5005619;28;20039;-62
2021/12/03 14:48:55;;;;;;;1999.90;999.90;;;3.10;99.90;;;;;;4996072;28;20093;-62
2021/12/03 14:51:48;;;;;;;1999.90;999.90;;;3.20;99.90;;;;;;4995229;28;20631;-62
2021/12/03 14:56:45;;;;;;;1999.90;999.90;;;3.20;99.90;;;;;;4995044;28;20663;-62
2021/12/03 14:59:19;;;;;;;1999.90;999.90;;;3.20;99.90;;;;;;4996251;28;20057;-62
2021/12/03 15:01:51;;;;;;;1999.90;999.90;;;3.30;99.90;;;;;;4996092;28;20049;-62
2021/12/03 15:04:33;;;;;;;1999.90;999.90;;;3.30;99.90;;;;;;4975730;28;20481;-61
2021/12/03 15:07:12;;;;;;;1999.90;999.90;;;3.30;99.90;;;;;;4976925;28;20114;-62
2021/12/03 15:09:41;;;;;;;1999.90;999.90;;;3.30;99.90;;;;;;4994327;28;20043;-62
2021/12/03 15:25:50;;;;;;;1999.90;999.90;;;3.50;99.90;;;;;;4994316;28;20488;-62
2021/12/03 15:28:58;;;;;;;1999.90;999.90;;;3.50;99.90;;;;;;4994977;28;20061;-62
2021/12/03 15:36:33;;;;;;;1999.90;999.90;;;3.60;99.90;;;;;;5010016;28;20132;-62
2021/12/03 16:03:35;;;;;;;1999.90;999.90;;;3.70;99.90;;;;;;4957342;28;20043;-63
2021/12/03 16:06:27;;;;;;;1999.90;999.90;;;3.70;99.90;;;;;;4975531;28;20108;-62
2021/12/03 16:08:56;;;;;;;1999.90;999.90;;;3.70;99.90;;;;;;4974869;28;20051;-62
2021/12/03 16:11:32;;;;;;;1999.90;999.90;;;3.70;99.90;;;;;;4991270;28;20055;-62
2021/12/03 16:17:03;;;;;;;1999.90;999.90;;;3.70;99.90;;;;;;4975941;28;20042;-61
2021/12/03 16:19:45;;;;;;;1999.90;999.90;;;3.70;99.90;;;;;;4985343;28;20509;-61
2021/12/03 16:24:58;;;;;;;1999.90;999.90;;;3.60;99.90;;;;;;4957659;28;20050;-62
2021/12/03 16:30:59;;;;;;;1999.90;999.90;;;3.70;99.90;;;;;;4978132;28;20050;-61
2021/12/03 16:44:06;;;;;;;1999.90;999.90;;;3.60;99.90;;;;;;4974587;28;20105;-62
2021/12/03 16:46:42;;;;;;;1999.90;999.90;;;3.60;99.90;;;;;;4975181;28;20051;-62
2021/12/03 16:51:54;;;;;;;1999.90;999.90;;;3.50;99.90;;;;;;4974180;28;20039;-62
2021/12/03 16:54:26;;;;;;;1999.90;999.90;;;3.50;99.90;;;;;;4976487;28;20061;-61
2021/12/03 16:56:54;;;;;;;1999.90;999.90;;;3.50;99.90;;;;;;4986699;28;20113;-61
2021/12/03 16:59:20;;;;;;;1999.90;999.90;;;3.50;99.90;;;;;;4994022;28;20054;-61
2021/12/03 17:01:54;;;;;;;1999.90;999.90;;;3.50;99.90;;;;;;4994063;28;20053;-61
2021/12/03 17:12:14;;;;;;;1999.90;999.90;;;3.50;99.90;;;;;;4993286;28;20042;-61